Valmy, Wisconsin
Current Conditions -  °F | °C
As of 10:55 AM on Friday 24 Oct 2014 (Local Time) from KSUE Reporting Station
Overcast Overcast  
Wind Chill: 45°   Ceiling: 600
Heat Index: 48°   Visibility: 10mi
Dew Point: 45°   Wind: 8mph
Humidity: 87%   Direction: 240°WSW
Pressure: 30.01"   Gusts: NA
Location:  44.7888°N, 87.4464°W
Report Text: KSUE 241555Z AUTO 24007KT 10SM OVC006 09/07 A3001 RMK AO1
Loading
Personal Weather Stations






























Interactive Weather Map
Tropical Storm Tracking
New forecast layout! Learn more

10-Day Weather Forecast

Advertisements
Track Severe Weather on mobile